sensor_id;sensor_type;location;lat;lon;timestamp;pressure;altitude;pressure_sealevel;temperature;humidity
76229;BME280;65021;53.174;18.160;2023-05-19T00:02:12;102431.93;;;8.02;62.68
76229;BME280;65021;53.174;18.160;2023-05-19T00:04:41;102431.09;;;8.02;62.14
76229;BME280;65021;53.174;18.160;2023-05-19T00:07:09;102430.05;;;8.02;62.44
76229;BME280;65021;53.174;18.160;2023-05-19T00:09:36;102427.27;;;8.00;62.31
76229;BME280;65021;53.174;18.160;2023-05-19T00:12:03;102425.59;;;7.99;63.28
76229;BME280;65021;53.174;18.160;2023-05-19T00:14:30;102425.38;;;7.99;62.77
76229;BME280;65021;53.174;18.160;2023-05-19T00:16:57;102424.52;;;7.99;63.09
76229;BME280;65021;53.174;18.160;2023-05-19T00:19:24;102421.36;;;7.98;63.67
76229;BME280;65021;53.174;18.160;2023-05-19T00:21:50;102419.55;;;7.94;63.02
76229;BME280;65021;53.174;18.160;2023-05-19T00:24:17;102420.67;;;7.93;63.05
76229;BME280;65021;53.174;18.160;2023-05-19T00:26:44;102423.73;;;7.92;63.83
76229;BME280;65021;53.174;18.160;2023-05-19T00:29:10;102422.14;;;7.93;63.19
76229;BME280;65021;53.174;18.160;2023-05-19T00:31:37;102415.66;;;7.93;63.18
76229;BME280;65021;53.174;18.160;2023-05-19T00:34:03;102420.91;;;7.94;63.66
76229;BME280;65021;53.174;18.160;2023-05-19T00:36:30;102410.02;;;7.95;63.39
76229;BME280;65021;53.174;18.160;2023-05-19T00:38:57;102408.11;;;7.96;63.20
76229;BME280;65021;53.174;18.160;2023-05-19T00:41:23;102407.83;;;7.97;63.87
76229;BME280;65021;53.174;18.160;2023-05-19T00:43:50;102407.52;;;7.98;63.62
76229;BME280;65021;53.174;18.160;2023-05-19T00:46:18;102407.75;;;7.97;63.99
76229;BME280;65021;53.174;18.160;2023-05-19T00:48:44;102407.40;;;7.97;63.93
76229;BME280;65021;53.174;18.160;2023-05-19T00:51:12;102406.09;;;7.97;63.84
76229;BME280;65021;53.174;18.160;2023-05-19T00:53:45;102403.18;;;7.97;63.61
76229;BME280;65021;53.174;18.160;2023-05-19T00:56:15;102406.48;;;7.97;64.20
76229;BME280;65021;53.174;18.160;2023-05-19T00:58:42;102405.64;;;7.98;64.35
76229;BME280;65021;53.174;18.160;2023-05-19T01:01:10;102406.58;;;7.98;63.84
76229;BME280;65021;53.174;18.160;2023-05-19T01:03:40;102411.70;;;7.97;63.92
76229;BME280;65021;53.174;18.160;2023-05-19T01:06:08;102410.17;;;7.94;63.85
76229;BME280;65021;53.174;18.160;2023-05-19T01:08:36;102407.75;;;7.91;64.55
76229;BME280;65021;53.174;18.160;2023-05-19T01:11:06;102408.95;;;7.89;64.41
76229;BME280;65021;53.174;18.160;2023-05-19T01:13:34;102410.45;;;7.87;64.54
76229;BME280;65021;53.174;18.160;2023-05-19T01:33:14;102414.55;;;7.74;65.25
76229;BME280;65021;53.174;18.160;2023-05-19T01:35:42;102410.91;;;7.73;64.65
76229;BME280;65021;53.174;18.160;2023-05-19T01:38:10;102410.70;;;7.73;64.91
76229;BME280;65021;53.174;18.160;2023-05-19T01:40:38;102413.23;;;7.72;65.43
76229;BME280;65021;53.174;18.160;2023-05-19T01:43:08;102412.41;;;7.72;65.39
76229;BME280;65021;53.174;18.160;2023-05-19T01:45:35;102411.73;;;7.71;65.38
76229;BME280;65021;53.174;18.160;2023-05-19T01:48:03;102406.23;;;7.72;65.32
76229;BME280;65021;53.174;18.160;2023-05-19T01:50:30;102406.64;;;7.75;65.60
76229;BME280;65021;53.174;18.160;2023-05-19T01:52:58;102407.02;;;7.78;65.87
76229;BME280;65021;53.174;18.160;2023-05-19T01:55:26;102407.12;;;7.78;65.67
76229;BME280;65021;53.174;18.160;2023-05-19T02:06:17;102406.05;;;7.71;67.09
76229;BME280;65021;53.174;18.160;2023-05-19T02:09:02;102404.74;;;7.63;66.58
76229;BME280;65021;53.174;18.160;2023-05-19T02:11:58;102404.80;;;7.57;67.40
76229;BME280;65021;53.174;18.160;2023-05-19T02:14:40;102398.77;;;7.51;67.35
76229;BME280;65021;53.174;18.160;2023-05-19T02:17:12;102404.64;;;7.46;68.52
76229;BME280;65021;53.174;18.160;2023-05-19T02:19:42;102406.04;;;7.41;68.53
76229;BME280;65021;53.174;18.160;2023-05-19T02:22:08;102403.05;;;7.36;68.89
76229;BME280;65021;53.174;18.160;2023-05-19T02:24:35;102404.30;;;7.31;68.55
76229;BME280;65021;53.174;18.160;2023-05-19T02:27:03;102403.31;;;7.29;68.67
76229;BME280;65021;53.174;18.160;2023-05-19T02:29:29;102403.21;;;7.28;68.87
76229;BME280;65021;53.174;18.160;2023-05-19T02:31:57;102403.97;;;7.28;69.39
76229;BME280;65021;53.174;18.160;2023-05-19T02:34:23;102401.52;;;7.28;68.88
76229;BME280;65021;53.174;18.160;2023-05-19T02:36:50;102401.28;;;7.32;69.00
76229;BME280;65021;53.174;18.160;2023-05-19T02:39:19;102399.16;;;7.33;68.73
76229;BME280;65021;53.174;18.160;2023-05-19T02:41:46;102401.13;;;7.33;68.79
76229;BME280;65021;53.174;18.160;2023-05-19T02:44:12;102397.83;;;7.34;68.60
76229;BME280;65021;53.174;18.160;2023-05-19T02:46:39;102392.08;;;7.36;68.17
76229;BME280;65021;53.174;18.160;2023-05-19T02:49:06;102391.88;;;7.39;68.07
76229;BME280;65021;53.174;18.160;2023-05-19T02:51:32;102387.80;;;7.42;67.80
76229;BME280;65021;53.174;18.160;2023-05-19T02:53:59;102391.48;;;7.45;68.19
76229;BME280;65021;53.174;18.160;2023-05-19T02:56:25;102387.13;;;7.49;68.08
76229;BME280;65021;53.174;18.160;2023-05-19T02:58:53;102389.51;;;7.54;67.85
76229;BME280;65021;53.174;18.160;2023-05-19T03:01:19;102385.59;;;7.57;68.09
76229;BME280;65021;53.174;18.160;2023-05-19T03:03:48;102387.40;;;7.60;68.01
76229;BME280;65021;53.174;18.160;2023-05-19T03:06:14;102392.45;;;7.64;68.04
76229;BME280;65021;53.174;18.160;2023-05-19T03:08:43;102394.27;;;7.69;68.04
76229;BME280;65021;53.174;18.160;2023-05-19T03:11:10;102397.70;;;7.73;67.67
76229;BME280;65021;53.174;18.160;2023-05-19T03:13:36;102399.08;;;7.76;67.82
76229;BME280;65021;53.174;18.160;2023-05-19T03:16:03;102402.89;;;7.80;67.63
76229;BME280;65021;53.174;18.160;2023-05-19T03:18:30;102403.11;;;7.84;67.53
76229;BME280;65021;53.174;18.160;2023-05-19T03:20:57;102401.01;;;7.87;67.31
76229;BME280;65021;53.174;18.160;2023-05-19T03:23:23;102397.66;;;7.91;67.32
76229;BME280;65021;53.174;18.160;2023-05-19T03:25:51;102398.24;;;7.93;67.32
76229;BME280;65021;53.174;18.160;2023-05-19T03:28:21;102396.95;;;7.98;67.36
76229;BME280;65021;53.174;18.160;2023-05-19T03:30:52;102396.60;;;8.02;67.44
76229;BME280;65021;53.174;18.160;2023-05-19T03:33:19;102391.48;;;8.06;67.49
76229;BME280;65021;53.174;18.160;2023-05-19T03:35:46;102392.34;;;8.11;67.11
76229;BME280;65021;53.174;18.160;2023-05-19T03:38:12;102389.38;;;8.15;67.39
76229;BME280;65021;53.174;18.160;2023-05-19T03:40:39;102390.72;;;8.20;67.46
76229;BME280;65021;53.174;18.160;2023-05-19T03:43:07;102385.91;;;8.24;67.32
76229;BME280;65021;53.174;18.160;2023-05-19T03:45:33;102388.40;;;8.28;67.38
76229;BME280;65021;53.174;18.160;2023-05-19T03:48:00;102390.01;;;8.34;67.11
76229;BME280;65021;53.174;18.160;2023-05-19T03:50:27;102388.31;;;8.40;67.07
76229;BME280;65021;53.174;18.160;2023-05-19T03:52:54;102389.65;;;8.44;67.32
76229;BME280;65021;53.174;18.160;2023-05-19T03:55:21;102390.75;;;8.47;67.47
76229;BME280;65021;53.174;18.160;2023-05-19T03:57:47;102393.19;;;8.51;67.12
76229;BME280;65021;53.174;18.160;2023-05-19T04:00:15;102396.71;;;8.57;67.09
76229;BME280;65021;53.174;18.160;2023-05-19T04:02:41;102397.81;;;8.63;67.02
76229;BME280;65021;53.174;18.160;2023-05-19T04:05:09;102397.93;;;8.69;66.99
76229;BME280;65021;53.174;18.160;2023-05-19T04:07:36;102396.92;;;8.77;66.77
76229;BME280;65021;53.174;18.160;2023-05-19T04:10:06;102394.79;;;8.83;66.78
76229;BME280;65021;53.174;18.160;2023-05-19T04:12:33;102398.56;;;8.88;66.64
76229;BME280;65021;53.174;18.160;2023-05-19T04:15:00;102402.39;;;8.96;66.42
76229;BME280;65021;53.174;18.160;2023-05-19T04:17:26;102411.88;;;9.04;66.37
76229;BME280;65021;53.174;18.160;2023-05-19T04:19:54;102412.38;;;9.14;66.31
76229;BME280;65021;53.174;18.160;2023-05-19T04:22:20;102409.49;;;9.24;66.10
76229;BME280;65021;53.174;18.160;2023-05-19T04:24:48;102409.02;;;9.36;66.21
76229;BME280;65021;53.174;18.160;2023-05-19T04:27:15;102413.90;;;9.51;65.97
76229;BME280;65021;53.174;18.160;2023-05-19T04:29:43;102417.82;;;9.63;65.71
76229;BME280;65021;53.174;18.160;2023-05-19T04:32:11;102417.77;;;9.68;65.64
76229;BME280;65021;53.174;18.160;2023-05-19T04:34:42;102418.44;;;9.75;65.44
76229;BME280;65021;53.174;18.160;2023-05-19T04:37:12;102423.28;;;9.83;65.38
76229;BME280;65021;53.174;18.160;2023-05-19T04:39:39;102423.84;;;9.95;64.93
76229;BME280;65021;53.174;18.160;2023-05-19T04:42:11;102420.46;;;10.05;64.99
76229;BME280;65021;53.174;18.160;2023-05-19T04:44:38;102418.58;;;10.14;64.68
76229;BME280;65021;53.174;18.160;2023-05-19T04:47:06;102429.40;;;10.37;64.20
76229;BME280;65021;53.174;18.160;2023-05-19T04:49:34;102426.05;;;10.65;64.05
76229;BME280;65021;53.174;18.160;2023-05-19T04:52:08;102418.06;;;11.01;63.49
76229;BME280;65021;53.174;18.160;2023-05-19T04:54:38;102415.51;;;11.40;63.07
76229;BME280;65021;53.174;18.160;2023-05-19T04:57:05;102417.45;;;11.79;61.94
76229;BME280;65021;53.174;18.160;2023-05-19T04:59:32;102413.56;;;12.22;61.09
76229;BME280;65021;53.174;18.160;2023-05-19T05:01:58;102416.21;;;12.59;59.71
76229;BME280;65021;53.174;18.160;2023-05-19T05:04:25;102422.91;;;12.94;60.12
76229;BME280;65021;53.174;18.160;2023-05-19T05:06:52;102420.73;;;13.22;58.26
76229;BME280;65021;53.174;18.160;2023-05-19T05:09:18;102419.40;;;13.43;57.55
76229;BME280;65021;53.174;18.160;2023-05-19T05:11:45;102419.52;;;13.48;55.21
76229;BME280;65021;53.174;18.160;2023-05-19T05:14:12;102418.55;;;13.54;55.52
76229;BME280;65021;53.174;18.160;2023-05-19T05:16:39;102418.38;;;13.60;55.21
76229;BME280;65021;53.174;18.160;2023-05-19T05:19:07;102415.43;;;13.63;55.61
76229;BME280;65021;53.174;18.160;2023-05-19T05:21:34;102413.33;;;13.74;55.66
76229;BME280;65021;53.174;18.160;2023-05-19T05:24:01;102416.92;;;13.80;53.00
76229;BME280;65021;53.174;18.160;2023-05-19T05:26:29;102417.64;;;13.65;53.42
76229;BME280;65021;53.174;18.160;2023-05-19T05:28:58;102414.86;;;13.70;53.52
76229;BME280;65021;53.174;18.160;2023-05-19T05:31:25;102415.58;;;13.78;52.72
76229;BME280;65021;53.174;18.160;2023-05-19T05:33:52;102414.72;;;13.88;53.16
76229;BME280;65021;53.174;18.160;2023-05-19T05:36:18;102417.05;;;13.92;52.50
76229;BME280;65021;53.174;18.160;2023-05-19T05:38:45;102420.02;;;13.96;51.99
76229;BME280;65021;53.174;18.160;2023-05-19T05:41:14;102414.64;;;13.82;51.39
76229;BME280;65021;53.174;18.160;2023-05-19T05:43:41;102413.68;;;13.61;51.40
76229;BME280;65021;53.174;18.160;2023-05-19T05:46:07;102416.30;;;13.62;52.27
76229;BME280;65021;53.174;18.160;2023-05-19T05:48:34;102415.55;;;13.74;52.23
76229;BME280;65021;53.174;18.160;2023-05-19T05:51:01;102423.11;;;13.86;51.71
76229;BME280;65021;53.174;18.160;2023-05-19T05:53:29;102420.83;;;13.92;51.70
76229;BME280;65021;53.174;18.160;2023-05-19T05:55:57;102418.70;;;14.04;51.59
76229;BME280;65021;53.174;18.160;2023-05-19T05:58:24;102419.23;;;14.25;51.31
76229;BME280;65021;53.174;18.160;2023-05-19T06:00:51;102414.53;;;14.33;51.32
76229;BME280;65021;53.174;18.160;2023-05-19T06:03:18;102420.55;;;14.19;50.83
76229;BME280;65021;53.174;18.160;2023-05-19T06:05:49;102417.94;;;13.93;51.05
76229;BME280;65021;53.174;18.160;2023-05-19T06:08:15;102415.59;;;13.65;51.38
76229;BME280;65021;53.174;18.160;2023-05-19T06:10:43;102424.02;;;13.47;52.14
76229;BME280;65021;53.174;18.160;2023-05-19T06:13:10;102426.29;;;13.35;52.15
76229;BME280;65021;53.174;18.160;2023-05-19T06:15:36;102427.69;;;13.26;52.38
76229;BME280;65021;53.174;18.160;2023-05-19T06:18:03;102427.05;;;13.23;52.65
76229;BME280;65021;53.174;18.160;2023-05-19T06:20:29;102426.37;;;13.21;52.78
76229;BME280;65021;53.174;18.160;2023-05-19T06:22:56;102429.29;;;13.20;52.70
76229;BME280;65021;53.174;18.160;2023-05-19T06:25:23;102423.59;;;13.19;53.06
76229;BME280;65021;53.174;18.160;2023-05-19T06:27:50;102426.84;;;13.28;52.86
76229;BME280;65021;53.174;18.160;2023-05-19T06:30:16;102421.42;;;13.30;52.81
76229;BME280;65021;53.174;18.160;2023-05-19T06:32:43;102420.34;;;13.30;52.89
76229;BME280;65021;53.174;18.160;2023-05-19T06:35:09;102421.20;;;13.31;52.91
76229;BME280;65021;53.174;18.160;2023-05-19T06:37:36;102419.28;;;13.33;52.79
76229;BME280;65021;53.174;18.160;2023-05-19T06:40:03;102420.23;;;13.34;52.79
76229;BME280;65021;53.174;18.160;2023-05-19T06:42:30;102422.64;;;13.36;52.96
76229;BME280;65021;53.174;18.160;2023-05-19T06:44:57;102423.28;;;13.40;53.05
76229;BME280;65021;53.174;18.160;2023-05-19T06:47:24;102422.36;;;13.45;53.18
76229;BME280;65021;53.174;18.160;2023-05-19T06:49:51;102429.90;;;13.47;53.15
76229;BME280;65021;53.174;18.160;2023-05-19T06:52:21;102427.24;;;13.46;53.25
76229;BME280;65021;53.174;18.160;2023-05-19T06:54:48;102426.73;;;13.45;53.22
76229;BME280;65021;53.174;18.160;2023-05-19T06:57:15;102424.07;;;13.31;53.40
76229;BME280;65021;53.174;18.160;2023-05-19T06:59:42;102425.79;;;13.32;53.57
76229;BME280;65021;53.174;18.160;2023-05-19T07:02:09;102430.21;;;13.39;53.76
76229;BME280;65021;53.174;18.160;2023-05-19T07:04:38;102432.08;;;13.44;54.00
76229;BME280;65021;53.174;18.160;2023-05-19T07:07:05;102437.55;;;13.47;53.72
76229;BME280;65021;53.174;18.160;2023-05-19T07:09:32;102434.10;;;13.44;53.85
76229;BME280;65021;53.174;18.160;2023-05-19T07:11:58;102435.27;;;13.53;54.11
76229;BME280;65021;53.174;18.160;2023-05-19T07:14:25;102441.11;;;13.62;53.49
76229;BME280;65021;53.174;18.160;2023-05-19T07:16:52;102440.90;;;13.60;53.51
76229;BME280;65021;53.174;18.160;2023-05-19T07:19:18;102434.95;;;13.64;53.33
76229;BME280;65021;53.174;18.160;2023-05-19T07:21:46;102438.39;;;13.64;53.26
76229;BME280;65021;53.174;18.160;2023-05-19T07:24:13;102438.22;;;13.68;53.09
76229;BME280;65021;53.174;18.160;2023-05-19T07:26:40;102434.30;;;13.75;53.07
76229;BME280;65021;53.174;18.160;2023-05-19T07:29:07;102435.94;;;13.80;52.78
76229;BME280;65021;53.174;18.160;2023-05-19T07:31:34;102436.14;;;13.81;53.04
76229;BME280;65021;53.174;18.160;2023-05-19T07:34:01;102435.00;;;13.89;52.71
76229;BME280;65021;53.174;18.160;2023-05-19T07:36:28;102433.36;;;13.90;52.75
76229;BME280;65021;53.174;18.160;2023-05-19T07:38:54;102428.05;;;13.88;52.64
76229;BME280;65021;53.174;18.160;2023-05-19T07:41:21;102429.40;;;13.90;53.00
76229;BME280;65021;53.174;18.160;2023-05-19T07:43:48;102433.17;;;13.99;52.86
76229;BME280;65021;53.174;18.160;2023-05-19T07:46:15;102433.55;;;13.99;52.39
76229;BME280;65021;53.174;18.160;2023-05-19T07:48:41;102439.20;;;13.92;52.47
76229;BME280;65021;53.174;18.160;2023-05-19T07:51:08;102438.94;;;13.92;52.62
76229;BME280;65021;53.174;18.160;2023-05-19T07:53:35;102433.38;;;13.97;52.72
76229;BME280;65021;53.174;18.160;2023-05-19T07:56:03;102432.13;;;14.03;52.58
76229;BME280;65021;53.174;18.160;2023-05-19T07:58:30;102429.57;;;14.01;52.45
76229;BME280;65021;53.174;18.160;2023-05-19T08:00:57;102426.89;;;13.98;52.37
76229;BME280;65021;53.174;18.160;2023-05-19T08:03:25;102427.08;;;14.01;52.55
76229;BME280;65021;53.174;18.160;2023-05-19T08:05:52;102428.77;;;14.06;52.57
76229;BME280;65021;53.174;18.160;2023-05-19T08:08:18;102430.77;;;14.12;52.44
76229;BME280;65021;53.174;18.160;2023-05-19T08:10:45;102430.66;;;14.04;52.40
76229;BME280;65021;53.174;18.160;2023-05-19T08:13:12;102433.39;;;13.99;52.81
76229;BME280;65021;53.174;18.160;2023-05-19T08:15:39;102429.23;;;14.00;52.94
76229;BME280;65021;53.174;18.160;2023-05-19T08:18:06;102423.91;;;14.04;52.92
76229;BME280;65021;53.174;18.160;2023-05-19T08:20:33;102426.72;;;14.07;52.96
76229;BME280;65021;53.174;18.160;2023-05-19T08:22:59;102428.97;;;14.10;52.90
76229;BME280;65021;53.174;18.160;2023-05-19T08:25:26;102427.16;;;14.09;52.85
76229;BME280;65021;53.174;18.160;2023-05-19T08:27:53;102430.58;;;14.08;52.85
76229;BME280;65021;53.174;18.160;2023-05-19T08:30:19;102421.74;;;14.05;52.97
76229;BME280;65021;53.174;18.160;2023-05-19T08:32:46;102417.75;;;14.08;53.20
76229;BME280;65021;53.174;18.160;2023-05-19T08:35:13;102420.05;;;14.16;53.29
76229;BME280;65021;53.174;18.160;2023-05-19T08:37:40;102413.96;;;14.28;53.26
76229;BME280;65021;53.174;18.160;2023-05-19T08:40:10;102414.67;;;14.43;53.14
76229;BME280;65021;53.174;18.160;2023-05-19T08:42:41;102415.84;;;14.60;53.06
76229;BME280;65021;53.174;18.160;2023-05-19T08:45:09;102416.45;;;14.73;52.57
76229;BME280;65021;53.174;18.160;2023-05-19T08:47:35;102422.14;;;14.83;52.48
76229;BME280;65021;53.174;18.160;2023-05-19T08:50:06;102419.23;;;14.94;52.26
76229;BME280;65021;53.174;18.160;2023-05-19T08:55:27;102412.54;;;15.21;51.81
76229;BME280;65021;53.174;18.160;2023-05-19T08:58:00;102408.12;;;15.35;51.88
76229;BME280;65021;53.174;18.160;2023-05-19T09:00:29;102412.06;;;15.52;51.63
76229;BME280;65021;53.174;18.160;2023-05-19T09:02:56;102410.16;;;15.55;50.85
76229;BME280;65021;53.174;18.160;2023-05-19T09:05:23;102414.41;;;15.48;50.98
76229;BME280;65021;53.174;18.160;2023-05-19T09:07:49;102411.95;;;15.54;51.16
76229;BME280;65021;53.174;18.160;2023-05-19T09:10:16;102407.91;;;15.67;51.47
76229;BME280;65021;53.174;18.160;2023-05-19T09:12:44;102404.59;;;15.85;51.20
76229;BME280;65021;53.174;18.160;2023-05-19T09:15:12;102403.54;;;16.01;50.73
76229;BME280;65021;53.174;18.160;2023-05-19T09:17:39;102395.66;;;16.09;50.71
76229;BME280;65021;53.174;18.160;2023-05-19T09:20:06;102399.02;;;16.21;50.65
76229;BME280;65021;53.174;18.160;2023-05-19T09:22:40;102396.57;;;16.28;49.52
76229;BME280;65021;53.174;18.160;2023-05-19T09:25:26;102394.24;;;16.09;49.54
76229;BME280;65021;53.174;18.160;2023-05-19T09:27:53;102391.63;;;16.12;49.77
76229;BME280;65021;53.174;18.160;2023-05-19T09:30:20;102391.81;;;16.17;49.86
76229;BME280;65021;53.174;18.160;2023-05-19T09:32:47;102392.88;;;16.17;49.20
76229;BME280;65021;53.174;18.160;2023-05-19T09:35:13;102390.02;;;16.11;48.97
76229;BME280;65021;53.174;18.160;2023-05-19T09:37:45;102394.30;;;16.11;49.70
76229;BME280;65021;53.174;18.160;2023-05-19T09:40:15;102392.82;;;16.04;49.34
76229;BME280;65021;53.174;18.160;2023-05-19T09:42:41;102393.40;;;15.98;49.82
76229;BME280;65021;53.174;18.160;2023-05-19T09:45:09;102390.48;;;15.95;49.45
76229;BME280;65021;53.174;18.160;2023-05-19T09:47:38;102392.96;;;15.78;49.64
76229;BME280;65021;53.174;18.160;2023-05-19T09:50:05;102392.88;;;15.81;50.23
76229;BME280;65021;53.174;18.160;2023-05-19T09:52:35;102395.30;;;15.93;50.04
76229;BME280;65021;53.174;18.160;2023-05-19T09:55:02;102395.71;;;15.99;49.75
76229;BME280;65021;53.174;18.160;2023-05-19T09:57:34;102395.81;;;16.00;50.03
76229;BME280;65021;53.174;18.160;2023-05-19T10:00:11;102400.45;;;16.13;50.38
76229;BME280;65021;53.174;18.160;2023-05-19T10:02:46;102401.27;;;16.18;49.92
76229;BME280;65021;53.174;18.160;2023-05-19T10:05:15;102404.88;;;16.20;49.46
76229;BME280;65021;53.174;18.160;2023-05-19T10:07:43;102401.48;;;16.25;49.71
76229;BME280;65021;53.174;18.160;2023-05-19T10:10:11;102403.02;;;16.31;49.62
76229;BME280;65021;53.174;18.160;2023-05-19T10:12:39;102406.27;;;16.42;49.67
76229;BME280;65021;53.174;18.160;2023-05-19T10:15:11;102398.60;;;16.41;49.31
76229;BME280;65021;53.174;18.160;2023-05-19T10:17:39;102403.02;;;16.38;49.41
76229;BME280;65021;53.174;18.160;2023-05-19T10:22:34;102393.50;;;16.49;49.30
76229;BME280;65021;53.174;18.160;2023-05-19T10:25:01;102391.00;;;16.58;49.54
76229;BME280;65021;53.174;18.160;2023-05-19T10:27:28;102397.05;;;16.80;49.33
76229;BME280;65021;53.174;18.160;2023-05-19T10:29:59;102390.98;;;17.01;49.23
76229;BME280;65021;53.174;18.160;2023-05-19T10:32:29;102394.98;;;17.22;48.18
76229;BME280;65021;53.174;18.160;2023-05-19T10:40:50;102397.31;;;17.20;47.74
76229;BME280;65021;53.174;18.160;2023-05-19T10:45:55;102398.34;;;16.83;48.96
76229;BME280;65021;53.174;18.160;2023-05-19T10:48:22;102397.48;;;16.88;49.67
76229;BME280;65021;53.174;18.160;2023-05-19T10:50:53;102402.71;;;16.98;49.44
76229;BME280;65021;53.174;18.160;2023-05-19T10:53:30;102396.38;;;17.10;50.44
76229;BME280;65021;53.174;18.160;2023-05-19T10:55:56;102401.28;;;17.13;50.43
76229;BME280;65021;53.174;18.160;2023-05-19T11:01:14;102404.39;;;16.48;51.07
76229;BME280;65021;53.174;18.160;2023-05-19T11:03:48;102403.59;;;16.19;52.01
76229;BME280;65021;53.174;18.160;2023-05-19T11:08:58;102419.75;;;15.76;53.35
76229;BME280;65021;53.174;18.160;2023-05-19T11:11:41;102421.20;;;15.58;53.67
76229;BME280;65021;53.174;18.160;2023-05-19T11:14:10;102427.52;;;15.42;54.01
76229;BME280;65021;53.174;18.160;2023-05-19T11:16:39;102424.48;;;15.27;54.06
76229;BME280;65021;53.174;18.160;2023-05-19T11:19:07;102426.91;;;15.14;55.29
76229;BME280;65021;53.174;18.160;2023-05-19T11:21:41;102424.45;;;15.02;55.97
76229;BME280;65021;53.174;18.160;2023-05-19T11:24:09;102428.67;;;15.03;56.61
76229;BME280;65021;53.174;18.160;2023-05-19T11:26:39;102419.95;;;15.15;56.54
76229;BME280;65021;53.174;18.160;2023-05-19T11:29:07;102415.32;;;15.26;56.28
76229;BME280;65021;53.174;18.160;2023-05-19T11:31:34;102418.48;;;15.17;57.15
76229;BME280;65021;53.174;18.160;2023-05-19T11:34:02;102419.70;;;15.13;57.80
76229;BME280;65021;53.174;18.160;2023-05-19T11:36:30;102418.73;;;15.12;58.10
76229;BME280;65021;53.174;18.160;2023-05-19T11:38:58;102420.34;;;15.25;57.67
76229;BME280;65021;53.174;18.160;2023-05-19T11:41:26;102426.50;;;15.11;58.20
76229;BME280;65021;53.174;18.160;2023-05-19T11:43:53;102428.26;;;15.00;57.96
76229;BME280;65021;53.174;18.160;2023-05-19T11:46:20;102422.84;;;14.92;58.38
76229;BME280;65021;53.174;18.160;2023-05-19T11:48:47;102421.92;;;14.96;58.76
76229;BME280;65021;53.174;18.160;2023-05-19T11:51:16;102416.73;;;15.20;58.25
76229;BME280;65021;53.174;18.160;2023-05-19T11:53:42;102417.73;;;15.37;57.14
76229;BME280;65021;53.174;18.160;2023-05-19T11:56:11;102410.25;;;15.21;57.04
76229;BME280;65021;53.174;18.160;2023-05-19T11:58:37;102413.02;;;15.17;57.53
76229;BME280;65021;53.174;18.160;2023-05-19T12:01:04;102407.34;;;15.23;57.33
76229;BME280;65021;53.174;18.160;2023-05-19T12:03:34;102405.13;;;15.30;57.34
76229;BME280;65021;53.174;18.160;2023-05-19T12:06:02;102408.48;;;15.33;56.86
76229;BME280;65021;53.174;18.160;2023-05-19T12:08:29;102403.21;;;15.34;56.99
76229;BME280;65021;53.174;18.160;2023-05-19T12:10:56;102413.09;;;15.30;56.79
76229;BME280;65021;53.174;18.160;2023-05-19T12:13:24;102412.55;;;15.23;56.42
76229;BME280;65021;53.174;18.160;2023-05-19T12:15:50;102407.52;;;15.23;56.58
76229;BME280;65021;53.174;18.160;2023-05-19T12:18:18;102404.21;;;15.16;57.07
76229;BME280;65021;53.174;18.160;2023-05-19T12:20:45;102405.46;;;14.99;57.67
76229;BME280;65021;53.174;18.160;2023-05-19T12:23:12;102406.91;;;14.98;58.84
76229;BME280;65021;53.174;18.160;2023-05-19T12:25:39;102403.73;;;15.10;58.62
76229;BME280;65021;53.174;18.160;2023-05-19T12:28:06;102401.30;;;15.29;58.45
76229;BME280;65021;53.174;18.160;2023-05-19T12:30:33;102404.91;;;15.49;58.31
76229;BME280;65021;53.174;18.160;2023-05-19T12:33:00;102405.23;;;15.49;58.66
76229;BME280;65021;53.174;18.160;2023-05-19T12:35:29;102408.96;;;15.36;58.98
76229;BME280;65021;53.174;18.160;2023-05-19T12:38:01;102405.64;;;15.36;58.89
76229;BME280;65021;53.174;18.160;2023-05-19T12:40:28;102404.01;;;15.42;59.16
76229;BME280;65021;53.174;18.160;2023-05-19T12:42:55;102405.09;;;15.32;59.67
76229;BME280;65021;53.174;18.160;2023-05-19T12:45:24;102408.11;;;15.11;59.86
76229;BME280;65021;53.174;18.160;2023-05-19T12:47:53;102408.77;;;14.80;60.25
76229;BME280;65021;53.174;18.160;2023-05-19T12:50:20;102409.72;;;14.56;60.95
76229;BME280;65021;53.174;18.160;2023-05-19T12:52:48;102408.70;;;14.33;61.31
76229;BME280;65021;53.174;18.160;2023-05-19T12:55:17;102408.80;;;14.26;61.46
76229;BME280;65021;53.174;18.160;2023-05-19T12:57:50;102406.20;;;14.23;62.40
76229;BME280;65021;53.174;18.160;2023-05-19T13:00:21;102405.89;;;14.20;63.46
76229;BME280;65021;53.174;18.160;2023-05-19T13:05:27;102402.27;;;14.30;64.53
76229;BME280;65021;53.174;18.160;2023-05-19T13:10:22;102400.33;;;14.33;63.76
76229;BME280;65021;53.174;18.160;2023-05-19T13:12:48;102392.94;;;14.35;63.69
76229;BME280;65021;53.174;18.160;2023-05-19T13:15:15;102399.16;;;14.37;63.76
76229;BME280;65021;53.174;18.160;2023-05-19T13:17:41;102396.89;;;14.36;63.48
76229;BME280;65021;53.174;18.160;2023-05-19T13:20:08;102390.48;;;14.27;64.39
76229;BME280;65021;53.174;18.160;2023-05-19T13:22:35;102389.92;;;14.17;64.62
76229;BME280;65021;53.174;18.160;2023-05-19T13:25:01;102394.45;;;14.03;64.88
76229;BME280;65021;53.174;18.160;2023-05-19T13:27:28;102393.17;;;13.92;64.59
76229;BME280;65021;53.174;18.160;2023-05-19T13:29:55;102386.93;;;13.79;65.31
76229;BME280;65021;53.174;18.160;2023-05-19T13:32:22;102383.56;;;13.75;65.52
76229;BME280;65021;53.174;18.160;2023-05-19T13:34:49;102379.16;;;13.77;65.59
76229;BME280;65021;53.174;18.160;2023-05-19T13:37:15;102374.59;;;13.79;65.34